sensor_id;sensor_type;location;lat;lon;timestamp;pressure;altitude;pressure_sealevel;temperature;humidity
18569;BME280;14780;48.316;-1.050;2023-04-12T00:02:12;97721.38;;;23.17;41.29
18569;BME280;14780;48.316;-1.050;2023-04-12T00:04:57;97728.78;;;23.16;41.41
18569;BME280;14780;48.316;-1.050;2023-04-12T00:07:46;97744.31;;;23.16;41.41
18569;BME280;14780;48.316;-1.050;2023-04-12T00:10:31;97744.81;;;23.18;41.36
18569;BME280;14780;48.316;-1.050;2023-04-12T00:13:16;97736.94;;;23.16;41.40
18569;BME280;14780;48.316;-1.050;2023-04-12T00:16:01;97740.47;;;23.17;41.32
18569;BME280;14780;48.316;-1.050;2023-04-12T00:18:45;97733.91;;;23.18;41.28
18569;BME280;14780;48.316;-1.050;2023-04-12T00:21:30;97717.84;;;23.16;41.41
18569;BME280;14780;48.316;-1.050;2023-04-12T00:24:15;97719.16;;;23.19;41.33
18569;BME280;14780;48.316;-1.050;2023-04-12T00:26:59;97721.88;;;23.19;41.27
18569;BME280;14780;48.316;-1.050;2023-04-12T00:29:45;97721.88;;;23.19;41.28
18569;BME280;14780;48.316;-1.050;2023-04-12T00:32:30;97723.50;;;23.20;41.30
18569;BME280;14780;48.316;-1.050;2023-04-12T00:35:15;97725.94;;;23.21;41.27
18569;BME280;14780;48.316;-1.050;2023-04-12T00:37:59;97726.75;;;23.22;41.20
18569;BME280;14780;48.316;-1.050;2023-04-12T00:40:46;97722.91;;;23.23;41.26
18569;BME280;14780;48.316;-1.050;2023-04-12T00:43:31;97712.78;;;23.23;41.15
18569;BME280;14780;48.316;-1.050;2023-04-12T00:46:16;97694.00;;;23.22;41.31
18569;BME280;14780;48.316;-1.050;2023-04-12T00:49:04;97676.81;;;23.21;41.18
18569;BME280;14780;48.316;-1.050;2023-04-12T00:51:49;97679.53;;;23.21;41.17
18569;BME280;14780;48.316;-1.050;2023-04-12T00:54:35;97694.00;;;23.22;41.14
18569;BME280;14780;48.316;-1.050;2023-04-12T00:57:19;97687.72;;;23.21;41.13
18569;BME280;14780;48.316;-1.050;2023-04-12T01:00:07;97695.91;;;23.21;41.15
18569;BME280;14780;48.316;-1.050;2023-04-12T01:02:57;97713.59;;;23.24;41.17
18569;BME280;14780;48.316;-1.050;2023-04-12T01:08:49;97706.53;;;23.23;41.16
18569;BME280;14780;48.316;-1.050;2023-04-12T01:11:44;97709.75;;;23.25;41.16
18569;BME280;14780;48.316;-1.050;2023-04-12T01:17:31;97690.16;;;23.23;40.97
18569;BME280;14780;48.316;-1.050;2023-04-12T01:20:24;97681.97;;;23.23;41.02
18569;BME280;14780;48.316;-1.050;2023-04-12T01:26:54;97686.31;;;23.24;41.04
18569;BME280;14780;48.316;-1.050;2023-04-12T01:29:41;97699.75;;;23.20;41.01
18569;BME280;14780;48.316;-1.050;2023-04-12T01:32:26;97704.38;;;23.20;41.14
18569;BME280;14780;48.316;-1.050;2023-04-12T01:35:13;97699.75;;;23.20;41.05
18569;BME280;14780;48.316;-1.050;2023-04-12T01:38:00;97695.41;;;23.19;40.99
18569;BME280;14780;48.316;-1.050;2023-04-12T01:40:45;97719.69;;;23.21;41.01
18569;BME280;14780;48.316;-1.050;2023-04-12T01:43:29;97720.47;;;23.21;41.03
18569;BME280;14780;48.316;-1.050;2023-04-12T01:46:15;97697.84;;;23.21;40.91
18569;BME280;14780;48.316;-1.050;2023-04-12T01:49:02;97691.56;;;23.20;41.04
18569;BME280;14780;48.316;-1.050;2023-04-12T01:52:00;97678.75;;;23.21;40.96
18569;BME280;14780;48.316;-1.050;2023-04-12T01:54:49;97679.03;;;23.19;40.97
18569;BME280;14780;48.316;-1.050;2023-04-12T01:57:35;97682.06;;;23.18;41.03
18569;BME280;14780;48.316;-1.050;2023-04-12T02:00:22;97665.09;;;23.21;40.98
18569;BME280;14780;48.316;-1.050;2023-04-12T02:03:07;97674.38;;;23.20;40.92
18569;BME280;14780;48.316;-1.050;2023-04-12T02:05:52;97679.84;;;23.20;40.88
18569;BME280;14780;48.316;-1.050;2023-04-12T02:08:37;97681.78;;;23.19;41.02
18569;BME280;14780;48.316;-1.050;2023-04-12T02:11:22;97673.78;;;23.23;40.81
18569;BME280;14780;48.316;-1.050;2023-04-12T02:14:06;97647.63;;;23.22;40.92
18569;BME280;14780;48.316;-1.050;2023-04-12T02:16:51;97652.75;;;23.23;40.83
18569;BME280;14780;48.316;-1.050;2023-04-12T02:19:38;97654.41;;;23.24;40.82
18569;BME280;14780;48.316;-1.050;2023-04-12T02:22:22;97647.28;;;23.23;40.76
18569;BME280;14780;48.316;-1.050;2023-04-12T02:25:08;97648.94;;;23.24;40.81
18569;BME280;14780;48.316;-1.050;2023-04-12T02:27:53;97662.25;;;23.26;40.76
18569;BME280;14780;48.316;-1.050;2023-04-12T02:30:38;97677.84;;;23.25;40.68
18569;BME280;14780;48.316;-1.050;2023-04-12T02:33:25;97691.78;;;23.24;40.69
18569;BME280;14780;48.316;-1.050;2023-04-12T02:36:11;97691.78;;;23.24;40.72
18569;BME280;14780;48.316;-1.050;2023-04-12T02:38:56;97681.97;;;23.23;40.69
18569;BME280;14780;48.316;-1.050;2023-04-12T02:41:40;97680.38;;;23.22;40.72
18569;BME280;14780;48.316;-1.050;2023-04-12T02:44:25;97683.09;;;23.22;40.74
18569;BME280;14780;48.316;-1.050;2023-04-12T02:47:12;97664.00;;;23.22;40.65
18569;BME280;14780;48.316;-1.050;2023-04-12T02:49:57;97662.88;;;23.23;40.67
18569;BME280;14780;48.316;-1.050;2023-04-12T02:52:41;97672.19;;;23.22;40.53
18569;BME280;14780;48.316;-1.050;2023-04-12T02:55:26;97676.53;;;23.23;40.68
18569;BME280;14780;48.316;-1.050;2023-04-12T02:58:11;97685.81;;;23.22;40.60
18569;BME280;14780;48.316;-1.050;2023-04-12T03:00:56;97671.66;;;23.20;40.64
18569;BME280;14780;48.316;-1.050;2023-04-12T03:03:43;97674.09;;;23.21;40.58
18569;BME280;14780;48.316;-1.050;2023-04-12T03:06:28;97676.03;;;23.21;40.64
18569;BME280;14780;48.316;-1.050;2023-04-12T03:09:13;97676.03;;;23.21;40.58
18569;BME280;14780;48.316;-1.050;2023-04-12T03:12:00;97672.47;;;23.20;40.49
18569;BME280;14780;48.316;-1.050;2023-04-12T03:14:45;97669.75;;;23.20;40.57
18569;BME280;14780;48.316;-1.050;2023-04-12T03:17:30;97661.56;;;23.20;40.51
18569;BME280;14780;48.316;-1.050;2023-04-12T03:20:15;97670.56;;;23.21;40.53
18569;BME280;14780;48.316;-1.050;2023-04-12T03:23:00;97654.19;;;23.21;40.56
18569;BME280;14780;48.316;-1.050;2023-04-12T03:25:45;97654.19;;;23.21;40.44
18569;BME280;14780;48.316;-1.050;2023-04-12T03:28:30;97654.97;;;23.21;40.55
18569;BME280;14780;48.316;-1.050;2023-04-12T03:31:15;97647.91;;;23.20;40.52
18569;BME280;14780;48.316;-1.050;2023-04-12T03:34:04;97652.56;;;23.20;40.49
18569;BME280;14780;48.316;-1.050;2023-04-12T03:36:50;97638.63;;;23.21;40.52
18569;BME280;14780;48.316;-1.050;2023-04-12T03:39:35;97646.00;;;23.21;40.49
18569;BME280;14780;48.316;-1.050;2023-04-12T03:42:20;97641.06;;;23.23;40.41
18569;BME280;14780;48.316;-1.050;2023-04-12T03:45:05;97644.56;;;23.23;40.36
18569;BME280;14780;48.316;-1.050;2023-04-12T03:47:50;97638.63;;;23.21;40.57
18569;BME280;14780;48.316;-1.050;2023-04-12T03:50:34;97650.84;;;23.24;40.48
18569;BME280;14780;48.316;-1.050;2023-04-12T03:53:27;97642.66;;;23.24;40.39
18569;BME280;14780;48.316;-1.050;2023-04-12T03:56:14;97642.66;;;23.24;40.48
18569;BME280;14780;48.316;-1.050;2023-04-12T03:58:59;97656.81;;;23.26;40.33
18569;BME280;14780;48.316;-1.050;2023-04-12T04:01:44;97654.91;;;23.26;40.39
18569;BME280;14780;48.316;-1.050;2023-04-12T04:04:29;97672.38;;;23.25;40.31
18569;BME280;14780;48.316;-1.050;2023-04-12T04:07:15;97657.91;;;23.25;40.37
18569;BME280;14780;48.316;-1.050;2023-04-12T04:10:00;97643.50;;;23.24;40.29
18569;BME280;14780;48.316;-1.050;2023-04-12T04:12:44;97651.97;;;23.23;40.31
18569;BME280;14780;48.316;-1.050;2023-04-12T04:15:29;97660.66;;;23.25;40.37
18569;BME280;14780;48.316;-1.050;2023-04-12T04:18:14;97661.75;;;23.24;40.32
18569;BME280;14780;48.316;-1.050;2023-04-12T04:20:58;97664.50;;;23.24;40.24
18569;BME280;14780;48.316;-1.050;2023-04-12T04:23:43;97653.56;;;23.24;40.33
18569;BME280;14780;48.316;-1.050;2023-04-12T04:26:28;97651.16;;;23.22;40.29
18569;BME280;14780;48.316;-1.050;2023-04-12T04:29:17;97651.97;;;23.23;40.18
18569;BME280;14780;48.316;-1.050;2023-04-12T04:32:01;97643.28;;;23.21;40.28
18569;BME280;14780;48.316;-1.050;2023-04-12T04:34:46;97633.16;;;23.21;40.24
18569;BME280;14780;48.316;-1.050;2023-04-12T04:37:31;97654.19;;;23.21;40.17
18569;BME280;14780;48.316;-1.050;2023-04-12T04:40:18;97646.81;;;23.21;40.14
18569;BME280;14780;48.316;-1.050;2023-04-12T04:43:05;97644.91;;;23.22;40.13
18569;BME280;14780;48.316;-1.050;2023-04-12T04:45:51;97648.75;;;23.21;40.09
18569;BME280;14780;48.316;-1.050;2023-04-12T04:48:38;97648.22;;;23.19;40.23
18569;BME280;14780;48.316;-1.050;2023-04-12T04:51:24;97654.00;;;23.17;40.11
18569;BME280;14780;48.316;-1.050;2023-04-12T04:54:09;97650.94;;;23.19;40.26
18569;BME280;14780;48.316;-1.050;2023-04-12T04:56:54;97646.59;;;23.18;40.15
18569;BME280;14780;48.316;-1.050;2023-04-12T04:59:40;97670.34;;;23.17;40.22
18569;BME280;14780;48.316;-1.050;2023-04-12T05:02:24;97668.13;;;23.19;40.13
18569;BME280;14780;48.316;-1.050;2023-04-12T05:05:10;97675.81;;;23.17;40.16
18569;BME280;14780;48.316;-1.050;2023-04-12T05:08:06;97691.88;;;23.19;40.14
18569;BME280;14780;48.316;-1.050;2023-04-12T05:10:51;97687.53;;;23.18;40.12
18569;BME280;14780;48.316;-1.050;2023-04-12T05:13:37;97686.13;;;23.20;40.20
18569;BME280;14780;48.316;-1.050;2023-04-12T05:16:21;97681.47;;;23.21;40.06
18569;BME280;14780;48.316;-1.050;2023-04-12T05:19:06;97695.41;;;23.19;40.13
18569;BME280;14780;48.316;-1.050;2023-04-12T05:21:51;97697.84;;;23.21;40.24
18569;BME280;14780;48.316;-1.050;2023-04-12T05:24:36;97698.84;;;23.25;40.23
18569;BME280;14780;48.316;-1.050;2023-04-12T05:27:20;97696.03;;;23.30;40.23
18569;BME280;14780;48.316;-1.050;2023-04-12T05:30:05;97708.56;;;23.31;40.36
18569;BME280;14780;48.316;-1.050;2023-04-12T05:32:51;97696.44;;;23.37;40.85
18569;BME280;14780;48.316;-1.050;2023-04-12T05:35:35;97697.06;;;23.47;41.20
18569;BME280;14780;48.316;-1.050;2023-04-12T05:38:21;97706.16;;;23.56;41.31
18569;BME280;14780;48.316;-1.050;2023-04-12T05:41:05;97709.72;;;23.56;41.25
18569;BME280;14780;48.316;-1.050;2023-04-12T05:43:51;97710.81;;;23.55;41.48
18569;BME280;14780;48.316;-1.050;2023-04-12T05:46:35;97708.59;;;23.57;41.31
18569;BME280;14780;48.316;-1.050;2023-04-12T05:49:20;97712.44;;;23.56;41.33
18569;BME280;14780;48.316;-1.050;2023-04-12T05:52:05;97712.94;;;23.58;41.39
18569;BME280;14780;48.316;-1.050;2023-04-12T05:54:52;97715.06;;;23.61;41.60
18569;BME280;14780;48.316;-1.050;2023-04-12T05:57:37;97709.31;;;23.63;41.58
18569;BME280;14780;48.316;-1.050;2023-04-12T06:00:21;97710.91;;;23.64;41.46
18569;BME280;14780;48.316;-1.050;2023-04-12T06:03:08;97704.13;;;23.61;41.37
18569;BME280;14780;48.316;-1.050;2023-04-12T06:05:53;97704.13;;;23.61;41.44
18569;BME280;14780;48.316;-1.050;2023-04-12T06:08:38;97698.19;;;23.59;41.50
18569;BME280;14780;48.316;-1.050;2023-04-12T06:11:23;97708.28;;;23.59;41.44
18569;BME280;14780;48.316;-1.050;2023-04-12T06:14:08;97711.81;;;23.59;41.51
18569;BME280;14780;48.316;-1.050;2023-04-12T06:16:53;97719.53;;;23.57;41.36
18569;BME280;14780;48.316;-1.050;2023-04-12T06:19:37;97722.75;;;23.59;41.41
18569;BME280;14780;48.316;-1.050;2023-04-12T06:22:22;97728.22;;;23.59;41.29
18569;BME280;14780;48.316;-1.050;2023-04-12T06:25:07;97725.78;;;23.58;41.48
18569;BME280;14780;48.316;-1.050;2023-04-12T06:27:52;97727.38;;;23.59;41.44
18569;BME280;14780;48.316;-1.050;2023-04-12T06:30:36;97732.06;;;23.58;41.19
18569;BME280;14780;48.316;-1.050;2023-04-12T06:33:21;97735.69;;;23.54;41.15
18569;BME280;14780;48.316;-1.050;2023-04-12T06:36:06;97748.03;;;23.51;41.07
18569;BME280;14780;48.316;-1.050;2023-04-12T06:38:52;97753.97;;;23.53;41.05
18569;BME280;14780;48.316;-1.050;2023-04-12T06:41:37;97753.97;;;23.53;40.98
18569;BME280;14780;48.316;-1.050;2023-04-12T06:44:22;97757.75;;;23.57;40.99
18569;BME280;14780;48.316;-1.050;2023-04-12T06:47:07;97765.94;;;23.57;40.98
18569;BME280;14780;48.316;-1.050;2023-04-12T06:49:52;97764.81;;;23.58;40.87
18569;BME280;14780;48.316;-1.050;2023-04-12T06:52:38;97753.97;;;23.53;40.89
18569;BME280;14780;48.316;-1.050;2023-04-12T06:55:23;97761.06;;;23.54;40.94
18569;BME280;14780;48.316;-1.050;2023-04-12T06:58:10;97758.13;;;23.51;40.95
18569;BME280;14780;48.316;-1.050;2023-04-12T07:01:06;97746.69;;;23.49;40.84
18569;BME280;14780;48.316;-1.050;2023-04-12T07:03:52;97753.56;;;23.46;40.82
18569;BME280;14780;48.316;-1.050;2023-04-12T07:06:36;97749.84;;;23.42;40.85
18569;BME280;14780;48.316;-1.050;2023-04-12T07:09:21;97745.50;;;23.42;40.81
18569;BME280;14780;48.316;-1.050;2023-04-12T07:12:06;97737.38;;;23.37;40.79
18569;BME280;14780;48.316;-1.050;2023-04-12T07:14:50;97748.59;;;23.35;40.81
18569;BME280;14780;48.316;-1.050;2023-04-12T07:17:35;97748.88;;;23.33;40.66
18569;BME280;14780;48.316;-1.050;2023-04-12T07:20:20;97751.13;;;23.32;40.67
18569;BME280;14780;48.316;-1.050;2023-04-12T07:23:05;97756.06;;;23.30;40.63
18569;BME280;14780;48.316;-1.050;2023-04-12T07:25:50;97757.97;;;23.29;40.75
18569;BME280;14780;48.316;-1.050;2023-04-12T07:28:35;97755.56;;;23.28;40.75
18569;BME280;14780;48.316;-1.050;2023-04-12T07:31:19;97763.75;;;23.28;40.70
18569;BME280;14780;48.316;-1.050;2023-04-12T07:34:04;97769.50;;;23.26;40.76
18569;BME280;14780;48.316;-1.050;2023-04-12T07:36:48;97769.22;;;23.28;40.68
18569;BME280;14780;48.316;-1.050;2023-04-12T07:39:33;97770.00;;;23.28;40.69
18569;BME280;14780;48.316;-1.050;2023-04-12T07:42:18;97773.56;;;23.29;40.61
18569;BME280;14780;48.316;-1.050;2023-04-12T07:45:04;97775.75;;;23.27;40.63
18569;BME280;14780;48.316;-1.050;2023-04-12T07:47:49;97776.88;;;23.26;40.67
18569;BME280;14780;48.316;-1.050;2023-04-12T07:50:33;97790.84;;;23.24;40.67
18569;BME280;14780;48.316;-1.050;2023-04-12T07:53:20;97783.44;;;23.25;40.65
18569;BME280;14780;48.316;-1.050;2023-04-12T07:56:05;97780.72;;;23.25;40.64
18569;BME280;14780;48.316;-1.050;2023-04-12T07:58:51;97784.56;;;23.24;40.62
18569;BME280;14780;48.316;-1.050;2023-04-12T08:01:35;97792.25;;;23.22;40.61
18569;BME280;14780;48.316;-1.050;2023-04-12T08:04:21;97801.53;;;23.21;40.56
18569;BME280;14780;48.316;-1.050;2023-04-12T08:07:05;97788.19;;;23.19;40.70
18569;BME280;14780;48.316;-1.050;2023-04-12T08:09:51;97801.00;;;23.19;40.65
18569;BME280;14780;48.316;-1.050;2023-04-12T08:12:35;97794.25;;;23.16;40.63
18569;BME280;14780;48.316;-1.050;2023-04-12T08:15:20;97796.16;;;23.16;40.66
18569;BME280;14780;48.316;-1.050;2023-04-12T08:18:05;97800.78;;;23.15;40.57
18569;BME280;14780;48.316;-1.050;2023-04-12T08:20:51;97807.66;;;23.13;40.66
18569;BME280;14780;48.316;-1.050;2023-04-12T08:23:36;97806.53;;;23.14;40.59
18569;BME280;14780;48.316;-1.050;2023-04-12T08:26:21;97806.53;;;23.14;40.57
18569;BME280;14780;48.316;-1.050;2023-04-12T08:29:06;97804.91;;;23.13;40.60
18569;BME280;14780;48.316;-1.050;2023-04-12T08:31:51;97806.81;;;23.12;40.57
18569;BME280;14780;48.316;-1.050;2023-04-12T08:34:38;97801.38;;;23.12;40.55
18569;BME280;14780;48.316;-1.050;2023-04-12T08:37:22;97805.19;;;23.11;40.53
18569;BME280;14780;48.316;-1.050;2023-04-12T08:40:07;97806.31;;;23.10;40.56
18569;BME280;14780;48.316;-1.050;2023-04-12T08:42:52;97804.38;;;23.11;40.53
18569;BME280;14780;48.316;-1.050;2023-04-12T08:45:38;97802.75;;;23.10;40.60
18569;BME280;14780;48.316;-1.050;2023-04-12T08:48:23;97803.28;;;23.12;40.63
18569;BME280;14780;48.316;-1.050;2023-04-12T08:51:20;97808.72;;;23.12;40.58
18569;BME280;14780;48.316;-1.050;2023-04-12T08:54:05;97798.34;;;23.14;40.50
18569;BME280;14780;48.316;-1.050;2023-04-12T08:56:50;97809.25;;;23.14;40.53
18569;BME280;14780;48.316;-1.050;2023-04-12T08:59:38;97800.25;;;23.13;40.54
18569;BME280;14780;48.316;-1.050;2023-04-12T09:02:23;97798.34;;;23.14;40.55
18569;BME280;14780;48.316;-1.050;2023-04-12T09:05:08;97812.78;;;23.14;40.54
18569;BME280;14780;48.316;-1.050;2023-04-12T09:07:53;97808.16;;;23.15;40.50
18569;BME280;14780;48.316;-1.050;2023-04-12T09:10:38;97810.88;;;23.15;40.54
18569;BME280;14780;48.316;-1.050;2023-04-12T09:13:35;97814.66;;;23.19;40.38
18569;BME280;14780;48.316;-1.050;2023-04-12T09:16:39;97803.72;;;23.19;40.43
18569;BME280;14780;48.316;-1.050;2023-04-12T09:19:31;97803.22;;;23.17;40.50
18569;BME280;14780;48.316;-1.050;2023-04-12T09:22:17;97811.69;;;23.15;40.47
18569;BME280;14780;48.316;-1.050;2023-04-12T09:25:01;97807.06;;;23.16;40.37
18569;BME280;14780;48.316;-1.050;2023-04-12T09:27:51;97798.06;;;23.15;40.44
18569;BME280;14780;48.316;-1.050;2023-04-12T09:30:41;97792.59;;;23.15;40.45
18569;BME280;14780;48.316;-1.050;2023-04-12T09:33:33;97800.50;;;23.17;40.42
18569;BME280;14780;48.316;-1.050;2023-04-12T09:36:18;97804.34;;;23.16;40.35
18569;BME280;14780;48.316;-1.050;2023-04-12T09:39:03;97804.34;;;23.16;40.47
18569;BME280;14780;48.316;-1.050;2023-04-12T09:42:03;97803.72;;;23.19;40.35
18569;BME280;14780;48.316;-1.050;2023-04-12T09:44:49;97801.31;;;23.17;40.38
18569;BME280;14780;48.316;-1.050;2023-04-12T09:47:38;97800.50;;;23.17;40.45
18569;BME280;14780;48.316;-1.050;2023-04-12T09:50:25;97816.59;;;23.18;40.26
18569;BME280;14780;48.316;-1.050;2023-04-12T09:53:18;97800.50;;;23.17;39.70
18569;BME280;14780;48.316;-1.050;2023-04-12T09:56:03;97801.66;;;23.11;39.58
18569;BME280;14780;48.316;-1.050;2023-04-12T09:58:51;97792.47;;;23.07;39.73
18569;BME280;14780;48.316;-1.050;2023-04-12T10:01:41;97794.38;;;23.06;39.67
18569;BME280;14780;48.316;-1.050;2023-04-12T10:04:26;97779.41;;;23.04;39.53
18569;BME280;14780;48.316;-1.050;2023-04-12T10:07:12;97785.69;;;23.04;39.38
18569;BME280;14780;48.316;-1.050;2023-04-12T10:09:59;97792.53;;;23.02;39.32
18569;BME280;14780;48.316;-1.050;2023-04-12T10:12:47;97781.63;;;23.02;39.33
18569;BME280;14780;48.316;-1.050;2023-04-12T10:15:32;97780.50;;;23.03;39.17
18569;BME280;14780;48.316;-1.050;2023-04-12T10:18:18;97795.75;;;23.04;39.17
18569;BME280;14780;48.316;-1.050;2023-04-12T10:21:04;97785.69;;;23.04;39.15
18569;BME280;14780;48.316;-1.050;2023-04-12T10:23:50;97789.19;;;23.05;39.07
18569;BME280;14780;48.316;-1.050;2023-04-12T10:26:34;97794.97;;;23.03;39.11
18569;BME280;14780;48.316;-1.050;2023-04-12T10:29:23;97788.13;;;23.06;39.05
18569;BME280;14780;48.316;-1.050;2023-04-12T10:32:23;97797.31;;;23.10;38.94
18569;BME280;14780;48.316;-1.050;2023-04-12T10:35:08;97792.47;;;23.07;38.89
18569;BME280;14780;48.316;-1.050;2023-04-12T10:38:01;97783.44;;;23.06;39.06
18569;BME280;14780;48.316;-1.050;2023-04-12T10:41:06;97796.19;;;23.11;39.00
18569;BME280;14780;48.316;-1.050;2023-04-12T10:43:52;97785.28;;;23.11;38.95
18569;BME280;14780;48.316;-1.050;2023-04-12T10:46:56;97786.09;;;23.11;38.84
18569;BME280;14780;48.316;-1.050;2023-04-12T10:56:00;97774.25;;;23.21;39.06
18569;BME280;14780;48.316;-1.050;2023-04-12T10:59:12;97771.19;;;23.22;39.01
18569;BME280;14780;48.316;-1.050;2023-04-12T11:05:08;97780.13;;;23.28;39.04
18569;BME280;14780;48.316;-1.050;2023-04-12T11:07:53;97787.78;;;23.26;39.09
18569;BME280;14780;48.316;-1.050;2023-04-12T11:10:38;97780.13;;;23.28;39.05
18569;BME280;14780;48.316;-1.050;2023-04-12T11:13:24;97782.25;;;23.31;39.08
18569;BME280;14780;48.316;-1.050;2023-04-12T11:16:10;97786.59;;;23.32;39.13
18569;BME280;14780;48.316;-1.050;2023-04-12T11:18:49;97786.00;;;23.35;39.14
18569;BME280;14780;48.316;-1.050;2023-04-12T11:21:35;97780.22;;;23.36;39.09
18569;BME280;14780;48.316;-1.050;2023-04-12T11:24:20;97776.09;;;23.38;39.10
18569;BME280;14780;48.316;-1.050;2023-04-12T11:27:07;97768.84;;;23.47;39.11
18569;BME280;14780;48.316;-1.050;2023-04-12T11:29:53;97773.09;;;23.53;39.27
18569;BME280;14780;48.316;-1.050;2023-04-12T11:32:39;97759.84;;;23.60;39.19
18569;BME280;14780;48.316;-1.050;2023-04-12T11:35:27;97768.53;;;23.62;38.99
18569;BME280;14780;48.316;-1.050;2023-04-12T11:38:14;97765.81;;;23.62;39.10
18569;BME280;14780;48.316;-1.050;2023-04-12T11:40:59;97766.94;;;23.61;39.09
18569;BME280;14780;48.316;-1.050;2023-04-12T11:46:10;97789.09;;;23.60;39.08
18569;BME280;14780;48.316;-1.050;2023-04-12T11:48:55;97786.66;;;23.58;38.82
18569;BME280;14780;48.316;-1.050;2023-04-12T11:51:40;97810.72;;;23.56;39.07
18569;BME280;14780;48.316;-1.050;2023-04-12T11:54:27;97806.69;;;23.54;38.99
18569;BME280;14780;48.316;-1.050;2023-04-12T11:57:17;97811.94;;;23.50;38.95
18569;BME280;14780;48.316;-1.050;2023-04-12T12:00:02;97792.31;;;23.48;38.74
18569;BME280;14780;48.316;-1.050;2023-04-12T12:02:50;97777.03;;;23.47;38.60
18569;BME280;14780;48.316;-1.050;2023-04-12T12:05:39;97774.28;;;23.47;38.78
18569;BME280;14780;48.316;-1.050;2023-04-12T12:08:25;97777.22;;;23.51;38.83
18569;BME280;14780;48.316;-1.050;2023-04-12T12:11:10;97786.25;;;23.51;38.81
18569;BME280;14780;48.316;-1.050;2023-04-12T12:13:56;97784.00;;;23.53;38.75
18569;BME280;14780;48.316;-1.050;2023-04-12T12:16:54;97770.56;;;23.57;38.79
18569;BME280;14780;48.316;-1.050;2023-04-12T12:19:43;97782.31;;;23.57;38.69
18569;BME280;14780;48.316;-1.050;2023-04-12T12:22:28;97762.00;;;23.63;38.90
18569;BME280;14780;48.316;-1.050;2023-04-12T12:25:13;97768.47;;;23.67;38.90
18569;BME280;14780;48.316;-1.050;2023-04-12T12:27:57;97766.22;;;23.69;38.84
18569;BME280;14780;48.316;-1.050;2023-04-12T12:30:42;97759.88;;;23.74;39.00
18569;BME280;14780;48.316;-1.050;2023-04-12T12:33:36;97756.44;;;23.82;38.89
18569;BME280;14780;48.316;-1.050;2023-04-12T12:36:31;97752.31;;;23.84;39.02
18569;BME280;14780;48.316;-1.050;2023-04-12T12:39:17;97744.63;;;23.86;38.99
18569;BME280;14780;48.316;-1.050;2023-04-12T12:42:01;97734.69;;;23.90;39.10
18569;BME280;14780;48.316;-1.050;2023-04-12T12:44:48;97735.22;;;23.92;38.95
18569;BME280;14780;48.316;-1.050;2023-04-12T12:47:43;97734.59;;;23.95;39.02
18569;BME280;14780;48.316;-1.050;2023-04-12T12:50:30;97722.56;;;23.96;39.09
18569;BME280;14780;48.316;-1.050;2023-04-12T12:53:14;97729.63;;;23.97;39.09
18569;BME280;14780;48.316;-1.050;2023-04-12T12:55:59;97728.03;;;23.96;39.08
18569;BME280;14780;48.316;-1.050;2023-04-12T12:58:43;97724.81;;;23.94;39.07
18569;BME280;14780;48.316;-1.050;2023-04-12T13:01:28;97724.59;;;23.91;38.89
18569;BME280;14780;48.316;-1.050;2023-04-12T13:04:14;97713.47;;;23.87;38.87
18569;BME280;14780;48.316;-1.050;2023-04-12T13:06:58;97718.69;;;23.84;38.77
18569;BME280;14780;48.316;-1.050;2023-04-12T13:09:44;97720.63;;;23.83;38.82
18569;BME280;14780;48.316;-1.050;2023-04-12T13:12:30;97723.34;;;23.83;38.75
18569;BME280;14780;48.316;-1.050;2023-04-12T13:15:14;97710.22;;;23.85;38.71
18569;BME280;14780;48.316;-1.050;2023-04-12T13:17:59;97719.72;;;23.88;38.75
18569;BME280;14780;48.316;-1.050;2023-04-12T13:20:43;97710.94;;;23.91;38.81
18569;BME280;14780;48.316;-1.050;2023-04-12T13:23:29;97697.00;;;23.92;38.91
18569;BME280;14780;48.316;-1.050;2023-04-12T13:26:14;97684.94;;;23.93;38.92
18569;BME280;14780;48.316;-1.050;2023-04-12T13:28:58;97689.88;;;23.91;38.76
18569;BME280;14780;48.316;-1.050;2023-04-12T13:31:44;97705.78;;;23.89;38.78
18569;BME280;14780;48.316;-1.050;2023-04-12T13:34:30;97718.94;;;23.87;38.74
18569;BME280;14780;48.316;-1.050;2023-04-12T13:37:15;97752.31;;;23.84;38.66
18569;BME280;14780;48.316;-1.050;2023-04-12T13:39:59;97752.31;;;23.84;38.66
18569;BME280;14780;48.316;-1.050;2023-04-12T13:42:44;97729.63;;;23.84;38.70
18569;BME280;14780;48.316;-1.050;2023-04-12T13:45:29;97725.50;;;23.86;38.75
18569;BME280;14780;48.316;-1.050;2023-04-12T13:48:14;97718.66;;;23.89;38.63
18569;BME280;14780;48.316;-1.050;2023-04-12T13:50:59;97710.94;;;23.91;38.77
18569;BME280;14780;48.316;-1.050;2023-04-12T13:53:44;97724.31;;;23.92;38.65
18569;BME280;14780;48.316;-1.050;2023-04-12T13:56:29;97708.41;;;23.94;38.64
18569;BME280;14780;48.316;-1.050;2023-04-12T13:59:14;97700.22;;;23.94;38.63
18569;BME280;14780;48.316;-1.050;2023-04-12T14:01:59;97685.25;;;23.92;38.64
18569;BME280;14780;48.316;-1.050;2023-04-12T14:04:52;97695.88;;;23.93;38.63
18569;BME280;14780;48.316;-1.050;2023-04-12T14:07:36;97701.94;;;23.90;38.56
18569;BME280;14780;48.316;-1.050;2023-04-12T14:10:22;97701.13;;;23.90;38.52
18569;BME280;14780;48.316;-1.050;2023-04-12T14:13:07;97700.81;;;23.91;38.60
18569;BME280;14780;48.316;-1.050;2023-04-12T14:15:52;97704.06;;;23.93;38.65
18569;BME280;14780;48.316;-1.050;2023-04-12T14:18:37;97693.13;;;23.93;38.71
18569;BME280;14780;48.316;-1.050;2023-04-12T14:21:22;97688.78;;;23.92;38.72
18569;BME280;14780;48.316;-1.050;2023-04-12T14:24:12;97706.28;;;23.91;38.60
18569;BME280;14780;48.316;-1.050;2023-04-12T14:26:57;97712.25;;;23.93;38.71
18569;BME280;14780;48.316;-1.050;2023-04-12T14:29:42;97701.94;;;23.90;38.60
18569;BME280;14780;48.316;-1.050;2023-04-12T14:32:27;97720.25;;;23.90;38.68
18569;BME280;14780;48.316;-1.050;2023-04-12T14:35:11;97732.59;;;23.87;38.54
18569;BME280;14780;48.316;-1.050;2023-04-12T14:37:57;97757.75;;;23.84;38.51
18569;BME280;14780;48.316;-1.050;2023-04-12T14:40:41;97741.97;;;23.81;38.59
18569;BME280;14780;48.316;-1.050;2023-04-12T14:43:26;97773.75;;;23.77;38.44
18569;BME280;14780;48.316;-1.050;2023-04-12T14:46:11;97718.59;;;23.75;38.48
18569;BME280;14780;48.316;-1.050;2023-04-12T14:48:56;97725.47;;;23.73;38.54
18569;BME280;14780;48.316;-1.050;2023-04-12T14:51:44;97745.69;;;23.72;38.51